ACA8025 CYYC-CYZF
Flight info
| Callsign | ACA8025 |
|---|---|
| Flight time | 1h 53m |
| Altitude | 38000 |
| Route | AVROM Q933 MAPUX DCT LISVA DCT GOREK |
| Aircraft | A20N/M-SDE2E3FGHIRWXY/LB1 |
Departure
| Time | 2026-05-04 21:49 |
|---|---|
| Airport | Calgary International Airport (CYYC) |
Arrival
| Time | 2026-05-04 23:42 |
|---|---|
| Airport | Yellowknife International Airport (CYZF) |
| Time | Latitude | Longitude | Altitude | Speed | Heading |
|---|---|---|---|---|---|
| 2026-05-04 21:34 | 51.12915 | -113.99937 | 3587 ft | 0 kts | 358° |
| 2026-05-04 21:40 | 51.12914 | -113.99937 | 3587 ft | 2 kts | 359° |
| 2026-05-04 21:40 | 51.12898 | -113.99937 | 3581 ft | 2 kts | 359° |
| 2026-05-04 21:40 | 51.12881 | -113.99937 | 3578 ft | 2 kts | 1° |
| 2026-05-04 21:41 | 51.12865 | -113.99938 | 3572 ft | 2 kts | 5° |
| 2026-05-04 21:41 | 51.12848 | -113.99942 | 3579 ft | 2 kts | 22° |
| 2026-05-04 21:41 | 51.12838 | -113.99958 | 3572 ft | 1 kts | 86° |
| 2026-05-04 21:41 | 51.12838 | -113.99962 | 3573 ft | 0 kts | 87° |
| 2026-05-04 21:42 | 51.12838 | -113.99937 | 3573 ft | 6 kts | 91° |
| 2026-05-04 21:43 | 51.12809 | -113.99881 | 3586 ft | 8 kts | 160° |
| 2026-05-04 21:43 | 51.12744 | -113.99871 | 3577 ft | 11 kts | 168° |
| 2026-05-04 21:43 | 51.12689 | -113.99791 | 3580 ft | 11 kts | 135° |
| 2026-05-04 21:43 | 51.12622 | -113.99733 | 3584 ft | 12 kts | 113° |
| 2026-05-04 21:44 | 51.12615 | -113.99608 | 3589 ft | 11 kts | 90° |
| 2026-05-04 21:44 | 51.12616 | -113.99486 | 3591 ft | 11 kts | 89° |
| 2026-05-04 21:44 | 51.12613 | -113.99366 | 3593 ft | 11 kts | 101° |
| 2026-05-04 21:44 | 51.12553 | -113.99306 | 3586 ft | 12 kts | 177° |
| 2026-05-04 21:45 | 51.12458 | -113.99304 | 3584 ft | 15 kts | 179° |
| 2026-05-04 21:45 | 51.12345 | -113.99306 | 3577 ft | 18 kts | 181° |
| 2026-05-04 21:45 | 51.12211 | -113.99305 | 3578 ft | 21 kts | 179° |
| 2026-05-04 21:45 | 51.12056 | -113.99308 | 3575 ft | 24 kts | 179° |
| 2026-05-04 21:46 | 51.11885 | -113.99309 | 3580 ft | 21 kts | 182° |
| 2026-05-04 21:46 | 51.11810 | -113.99424 | 3574 ft | 17 kts | 225° |
| 2026-05-04 21:46 | 51.11687 | -113.99447 | 3572 ft | 20 kts | 180° |
| 2026-05-04 21:46 | 51.11540 | -113.99446 | 3574 ft | 22 kts | 179° |
| 2026-05-04 21:47 | 51.11377 | -113.99449 | 3575 ft | 25 kts | 179° |
| 2026-05-04 21:47 | 51.11193 | -113.99451 | 3571 ft | 28 kts | 179° |
| 2026-05-04 21:47 | 51.11047 | -113.99423 | 3568 ft | 17 kts | 127° |
| 2026-05-04 21:47 | 51.11034 | -113.99244 | 3578 ft | 16 kts | 89° |
| 2026-05-04 21:48 | 51.11050 | -113.99064 | 3574 ft | 16 kts | 47° |
| 2026-05-04 21:48 | 51.11103 | -113.99037 | 3574 ft | 0 kts | 357° |
| 2026-05-04 21:48 | 51.11123 | -113.99038 | 3576 ft | 22 kts | 358° |
| 2026-05-04 21:48 | 51.11561 | -113.99035 | 3578 ft | 100 kts | 0° |
| 2026-05-04 21:49 | 51.12466 | -113.99033 | 3664 ft | 152 kts | 0° |
| 2026-05-04 21:49 | 51.13554 | -113.99012 | 4402 ft | 161 kts | 2° |
| 2026-05-04 21:49 | 51.14708 | -113.98961 | 5233 ft | 177 kts | 0° |
| 2026-05-04 21:49 | 51.16002 | -113.98908 | 5767 ft | 195 kts | 0° |
| 2026-05-04 21:50 | 51.17438 | -113.98913 | 6232 ft | 217 kts | 358° |
| 2026-05-04 21:50 | 51.19023 | -113.98959 | 6816 ft | 239 kts | 359° |
| 2026-05-04 21:50 | 51.20717 | -113.98990 | 7548 ft | 252 kts | 359° |
| 2026-05-04 21:50 | 51.22479 | -113.98994 | 8523 ft | 254 kts | 358° |
| 2026-05-04 21:51 | 51.24261 | -113.99001 | 9494 ft | 257 kts | 358° |
| 2026-05-04 21:51 | 51.26071 | -113.99011 | 10342 ft | 265 kts | 358° |
| 2026-05-04 21:51 | 51.27968 | -113.99019 | 10775 ft | 286 kts | 358° |
| 2026-05-04 21:51 | 51.30027 | -113.98701 | 11134 ft | 309 kts | 12° |
| 2026-05-04 21:52 | 51.32008 | -113.97255 | 11898 ft | 319 kts | 29° |
| 2026-05-04 21:52 | 51.33868 | -113.95248 | 12799 ft | 322 kts | 29° |
| 2026-05-04 21:52 | 51.35726 | -113.93228 | 13702 ft | 323 kts | 29° |
| 2026-05-04 21:52 | 51.37570 | -113.91215 | 14481 ft | 326 kts | 28° |
| 2026-05-04 21:53 | 51.39459 | -113.89147 | 15230 ft | 329 kts | 28° |
| 2026-05-04 21:53 | 51.41365 | -113.87055 | 15945 ft | 333 kts | 27° |
| 2026-05-04 21:53 | 51.43273 | -113.84959 | 16680 ft | 336 kts | 27° |
| 2026-05-04 21:53 | 51.45199 | -113.82839 | 17381 ft | 340 kts | 26° |
| 2026-05-04 21:54 | 51.47228 | -113.80874 | 18079 ft | 337 kts | 19° |
| 2026-05-04 21:54 | 51.49365 | -113.79378 | 18740 ft | 333 kts | 12° |
| 2026-05-04 21:54 | 51.51547 | -113.78348 | 19399 ft | 329 kts | 6° |
| 2026-05-04 21:54 | 51.53790 | -113.77521 | 20048 ft | 330 kts | 6° |
| 2026-05-04 21:55 | 51.56031 | -113.76672 | 20686 ft | 332 kts | 6° |
| 2026-05-04 21:55 | 51.58294 | -113.75807 | 21330 ft | 334 kts | 6° |
| 2026-05-04 21:55 | 51.60565 | -113.74940 | 21963 ft | 335 kts | 6° |
| 2026-05-04 21:55 | 51.62821 | -113.74089 | 22575 ft | 337 kts | 6° |
| 2026-05-04 21:56 | 51.65124 | -113.73225 | 23195 ft | 339 kts | 6° |
| 2026-05-04 21:56 | 51.67433 | -113.72359 | 23786 ft | 341 kts | 6° |
| 2026-05-04 21:56 | 51.69761 | -113.71485 | 24287 ft | 343 kts | 6° |
| 2026-05-04 21:56 | 51.72067 | -113.70618 | 24776 ft | 345 kts | 6° |
| 2026-05-04 21:57 | 51.74412 | -113.69734 | 25266 ft | 347 kts | 6° |
| 2026-05-04 21:57 | 51.76774 | -113.68842 | 25753 ft | 348 kts | 6° |
| 2026-05-04 21:57 | 51.79143 | -113.67946 | 26221 ft | 350 kts | 6° |
| 2026-05-04 21:57 | 51.81529 | -113.67044 | 26659 ft | 352 kts | 6° |
| 2026-05-04 21:58 | 51.83925 | -113.66136 | 27111 ft | 354 kts | 6° |
| 2026-05-04 21:58 | 51.86335 | -113.65221 | 27555 ft | 356 kts | 6° |
| 2026-05-04 21:58 | 51.88725 | -113.64314 | 27969 ft | 358 kts | 6° |
| 2026-05-04 21:58 | 51.91160 | -113.63387 | 28386 ft | 360 kts | 6° |
| 2026-05-04 21:59 | 51.93618 | -113.62452 | 28779 ft | 361 kts | 6° |
| 2026-05-04 21:59 | 51.96041 | -113.61528 | 29167 ft | 363 kts | 6° |
| 2026-05-04 21:59 | 51.98516 | -113.60584 | 29540 ft | 365 kts | 6° |
| 2026-05-04 21:59 | 52.01000 | -113.59635 | 29914 ft | 366 kts | 6° |
| 2026-05-04 22:00 | 52.03471 | -113.58690 | 30261 ft | 368 kts | 7° |
| 2026-05-04 22:00 | 52.05975 | -113.57730 | 30579 ft | 370 kts | 7° |
| 2026-05-04 22:00 | 52.08487 | -113.56767 | 30913 ft | 371 kts | 7° |
| 2026-05-04 22:00 | 52.11013 | -113.55797 | 31231 ft | 372 kts | 7° |
| 2026-05-04 22:01 | 52.13506 | -113.54839 | 31615 ft | 371 kts | 7° |
| 2026-05-04 22:01 | 52.16034 | -113.53865 | 32049 ft | 370 kts | 7° |
| 2026-05-04 22:01 | 52.18537 | -113.52900 | 32453 ft | 368 kts | 7° |
| 2026-05-04 22:01 | 52.21001 | -113.51950 | 32859 ft | 367 kts | 7° |
| 2026-05-04 22:02 | 52.23503 | -113.50984 | 33235 ft | 366 kts | 7° |
| 2026-05-04 22:02 | 52.25986 | -113.50024 | 33610 ft | 365 kts | 7° |
| 2026-05-04 22:02 | 52.28433 | -113.49078 | 33980 ft | 364 kts | 8° |
| 2026-05-04 22:02 | 52.30075 | -113.48442 | 34192 ft | 364 kts | 8° |
| 2026-05-04 22:03 | 52.33359 | -113.47169 | 34491 ft | 365 kts | 8° |
| 2026-05-04 22:03 | 52.35857 | -113.46200 | 34698 ft | 367 kts | 8° |
| 2026-05-04 22:03 | 52.38330 | -113.45239 | 34897 ft | 368 kts | 8° |
| 2026-05-04 22:03 | 52.39996 | -113.44590 | 35030 ft | 369 kts | 8° |
| 2026-05-04 22:04 | 52.42511 | -113.43609 | 35247 ft | 369 kts | 8° |
| 2026-05-04 22:04 | 52.45000 | -113.42638 | 35422 ft | 371 kts | 8° |
| 2026-05-04 22:04 | 52.47530 | -113.41649 | 35609 ft | 372 kts | 8° |
| 2026-05-04 22:04 | 52.50026 | -113.40673 | 35777 ft | 374 kts | 8° |
| 2026-05-04 22:05 | 52.52581 | -113.39672 | 35951 ft | 375 kts | 8° |
| 2026-05-04 22:05 | 52.55106 | -113.38682 | 36128 ft | 376 kts | 8° |
| 2026-05-04 22:05 | 52.57662 | -113.37678 | 36309 ft | 377 kts | 8° |
| 2026-05-04 22:05 | 52.60222 | -113.36672 | 36465 ft | 378 kts | 8° |
| 2026-05-04 22:06 | 52.62770 | -113.35669 | 36611 ft | 380 kts | 8° |
| 2026-05-04 22:06 | 52.65347 | -113.34654 | 36777 ft | 380 kts | 8° |
| 2026-05-04 22:06 | 52.67934 | -113.33632 | 36934 ft | 381 kts | 8° |
| 2026-05-04 22:06 | 52.70495 | -113.32685 | 37089 ft | 381 kts | 5° |
| 2026-05-04 22:07 | 52.73138 | -113.32065 | 37231 ft | 379 kts | 1° |
| 2026-05-04 22:07 | 52.75744 | -113.31815 | 37381 ft | 378 kts | 358° |
| 2026-05-04 22:07 | 52.78394 | -113.31911 | 37518 ft | 378 kts | 354° |
| 2026-05-04 22:07 | 52.80987 | -113.32345 | 37659 ft | 377 kts | 350° |
| 2026-05-04 22:08 | 52.83597 | -113.32970 | 37804 ft | 378 kts | 350° |
| 2026-05-04 22:08 | 52.86189 | -113.33565 | 37933 ft | 379 kts | 350° |
| 2026-05-04 22:08 | 52.88792 | -113.34162 | 38056 ft | 380 kts | 350° |
| 2026-05-04 22:08 | 52.91394 | -113.34766 | 38159 ft | 380 kts | 350° |
| 2026-05-04 22:09 | 52.94037 | -113.35387 | 38164 ft | 380 kts | 350° |
| 2026-05-04 22:09 | 52.99254 | -113.36626 | 38160 ft | 380 kts | 350° |
| 2026-05-04 22:10 | 53.04502 | -113.37879 | 38152 ft | 380 kts | 350° |
| 2026-05-04 22:10 | 53.09755 | -113.39136 | 38144 ft | 381 kts | 350° |
| 2026-05-04 22:11 | 53.14995 | -113.40391 | 38137 ft | 381 kts | 350° |
| 2026-05-04 22:11 | 53.20225 | -113.41648 | 38131 ft | 381 kts | 350° |
| 2026-05-04 22:12 | 53.25462 | -113.42909 | 38123 ft | 381 kts | 350° |
| 2026-05-04 22:12 | 53.30706 | -113.44176 | 38114 ft | 382 kts | 350° |
| 2026-05-04 22:13 | 53.35996 | -113.45456 | 38117 ft | 382 kts | 350° |
| 2026-05-04 22:13 | 53.41254 | -113.46732 | 38125 ft | 382 kts | 350° |
| 2026-05-04 22:14 | 53.46497 | -113.48007 | 38132 ft | 382 kts | 350° |
| 2026-05-04 22:14 | 53.51733 | -113.49284 | 38143 ft | 382 kts | 350° |
| 2026-05-04 22:15 | 53.57004 | -113.50572 | 38155 ft | 382 kts | 349° |
| 2026-05-04 22:15 | 53.62256 | -113.51859 | 38147 ft | 382 kts | 349° |
| 2026-05-04 22:16 | 53.67505 | -113.53149 | 38145 ft | 381 kts | 349° |
| 2026-05-04 22:16 | 53.72785 | -113.53935 | 38144 ft | 383 kts | 355° |
| 2026-05-04 22:17 | 53.78126 | -113.54279 | 38148 ft | 383 kts | 354° |
| 2026-05-04 22:17 | 53.83441 | -113.54651 | 38155 ft | 382 kts | 355° |
| 2026-05-04 22:18 | 53.88750 | -113.55006 | 38160 ft | 383 kts | 355° |
| 2026-05-04 22:18 | 53.94064 | -113.55357 | 38174 ft | 383 kts | 355° |
| 2026-05-04 22:19 | 53.99380 | -113.55707 | 38185 ft | 383 kts | 355° |
| 2026-05-04 22:19 | 54.04704 | -113.56060 | 38184 ft | 383 kts | 355° |
| 2026-05-04 22:20 | 54.10005 | -113.56412 | 38188 ft | 384 kts | 355° |
| 2026-05-04 22:20 | 54.15352 | -113.56769 | 38195 ft | 384 kts | 355° |
| 2026-05-04 22:21 | 54.20673 | -113.57125 | 38200 ft | 384 kts | 355° |
| 2026-05-04 22:21 | 54.26041 | -113.57484 | 38205 ft | 384 kts | 354° |
| 2026-05-04 22:22 | 54.31375 | -113.57842 | 38203 ft | 384 kts | 354° |
| 2026-05-04 22:22 | 54.36729 | -113.58203 | 38201 ft | 385 kts | 354° |
| 2026-05-04 22:23 | 54.42068 | -113.58564 | 38211 ft | 385 kts | 354° |
| 2026-05-04 22:23 | 54.47395 | -113.58924 | 38213 ft | 385 kts | 354° |
| 2026-05-04 22:24 | 54.52733 | -113.59286 | 38211 ft | 385 kts | 354° |
| 2026-05-04 22:24 | 54.58104 | -113.59652 | 38207 ft | 385 kts | 354° |
| 2026-05-04 22:25 | 54.63430 | -113.60016 | 38211 ft | 385 kts | 354° |
| 2026-05-04 22:25 | 54.68781 | -113.60382 | 38210 ft | 385 kts | 354° |
| 2026-05-04 22:26 | 54.74135 | -113.60749 | 38207 ft | 386 kts | 354° |
| 2026-05-04 22:26 | 54.79506 | -113.61120 | 38209 ft | 386 kts | 354° |
| 2026-05-04 22:27 | 54.84864 | -113.61489 | 38206 ft | 386 kts | 354° |
| 2026-05-04 22:27 | 54.90229 | -113.61860 | 38206 ft | 386 kts | 354° |
| 2026-05-04 22:28 | 54.95565 | -113.62230 | 38208 ft | 387 kts | 354° |
| 2026-05-04 22:28 | 55.00964 | -113.62606 | 38212 ft | 387 kts | 354° |
| 2026-05-04 22:29 | 55.06333 | -113.62980 | 38210 ft | 387 kts | 354° |
| 2026-05-04 22:29 | 55.11714 | -113.63357 | 38213 ft | 388 kts | 354° |
| 2026-05-04 22:30 | 55.17108 | -113.63735 | 38215 ft | 388 kts | 354° |
| 2026-05-04 22:30 | 55.22488 | -113.64113 | 38214 ft | 388 kts | 354° |
| 2026-05-04 22:31 | 55.27884 | -113.64493 | 38214 ft | 389 kts | 354° |
| 2026-05-04 22:31 | 55.33284 | -113.64875 | 38213 ft | 389 kts | 354° |
| 2026-05-04 22:32 | 55.38709 | -113.65259 | 38210 ft | 389 kts | 354° |
| 2026-05-04 22:32 | 55.44132 | -113.65645 | 38205 ft | 390 kts | 354° |
| 2026-05-04 22:33 | 55.49544 | -113.66030 | 38203 ft | 390 kts | 354° |
| 2026-05-04 22:33 | 55.54956 | -113.66417 | 38208 ft | 390 kts | 354° |
| 2026-05-04 22:34 | 55.60378 | -113.66806 | 38203 ft | 391 kts | 354° |
| 2026-05-04 22:34 | 55.65813 | -113.67197 | 38202 ft | 391 kts | 354° |
| 2026-05-04 22:35 | 55.71247 | -113.67588 | 38209 ft | 392 kts | 354° |
| 2026-05-04 22:35 | 55.76720 | -113.67984 | 38199 ft | 393 kts | 354° |
| 2026-05-04 22:36 | 55.82173 | -113.68379 | 38208 ft | 393 kts | 354° |
| 2026-05-04 22:36 | 55.87644 | -113.68776 | 38218 ft | 394 kts | 354° |
| 2026-05-04 22:37 | 55.93114 | -113.69175 | 38216 ft | 395 kts | 354° |
| 2026-05-04 22:37 | 55.98619 | -113.69577 | 38213 ft | 395 kts | 354° |
| 2026-05-04 22:38 | 56.04126 | -113.69981 | 38222 ft | 395 kts | 354° |
| 2026-05-04 22:38 | 56.09593 | -113.70382 | 38211 ft | 396 kts | 354° |
| 2026-05-04 22:39 | 56.15098 | -113.70788 | 38221 ft | 396 kts | 354° |
| 2026-05-04 22:39 | 56.20622 | -113.71196 | 38220 ft | 396 kts | 354° |
| 2026-05-04 22:40 | 56.26130 | -113.71605 | 38225 ft | 397 kts | 354° |
| 2026-05-04 22:40 | 56.31640 | -113.72015 | 38222 ft | 397 kts | 354° |
| 2026-05-04 22:41 | 56.37152 | -113.72426 | 38222 ft | 397 kts | 354° |
| 2026-05-04 22:41 | 56.42666 | -113.72838 | 38225 ft | 397 kts | 354° |
| 2026-05-04 22:42 | 56.48198 | -113.73253 | 38230 ft | 397 kts | 354° |
| 2026-05-04 22:42 | 56.53736 | -113.73670 | 38226 ft | 398 kts | 354° |
| 2026-05-04 22:43 | 56.59239 | -113.74086 | 38225 ft | 398 kts | 354° |
| 2026-05-04 22:43 | 56.64786 | -113.74506 | 38221 ft | 398 kts | 354° |
| 2026-05-04 22:44 | 56.70323 | -113.74926 | 38221 ft | 398 kts | 354° |
| 2026-05-04 22:44 | 56.75851 | -113.75348 | 38218 ft | 398 kts | 355° |
| 2026-05-04 22:45 | 56.81329 | -113.75777 | 38233 ft | 394 kts | 356° |
| 2026-05-04 22:45 | 56.89597 | -113.76411 | 38233 ft | 395 kts | 356° |
| 2026-05-04 22:46 | 56.95070 | -113.76831 | 38234 ft | 395 kts | 356° |
| 2026-05-04 22:46 | 57.00557 | -113.77254 | 38235 ft | 395 kts | 356° |
| 2026-05-04 22:47 | 57.06069 | -113.77681 | 38236 ft | 395 kts | 356° |
| 2026-05-04 22:47 | 57.11563 | -113.78107 | 38238 ft | 395 kts | 356° |
| 2026-05-04 22:48 | 57.17047 | -113.78533 | 38241 ft | 395 kts | 356° |
| 2026-05-04 22:48 | 57.22518 | -113.78959 | 38240 ft | 395 kts | 356° |
| 2026-05-04 22:49 | 57.28041 | -113.79390 | 38241 ft | 396 kts | 356° |
| 2026-05-04 22:49 | 57.33539 | -113.79821 | 38242 ft | 396 kts | 356° |
| 2026-05-04 22:50 | 57.39028 | -113.80252 | 38244 ft | 396 kts | 356° |
| 2026-05-04 22:50 | 57.44510 | -113.80684 | 38244 ft | 396 kts | 356° |
| 2026-05-04 22:51 | 57.50043 | -113.81122 | 38248 ft | 396 kts | 356° |
| 2026-05-04 22:51 | 57.55536 | -113.81557 | 38248 ft | 397 kts | 356° |
| 2026-05-04 22:52 | 57.61060 | -113.81997 | 38250 ft | 397 kts | 356° |
| 2026-05-04 22:52 | 57.66547 | -113.82434 | 38245 ft | 397 kts | 356° |
| 2026-05-04 22:53 | 57.72087 | -113.82878 | 38247 ft | 397 kts | 356° |
| 2026-05-04 22:53 | 57.77607 | -113.83321 | 38248 ft | 397 kts | 355° |
| 2026-05-04 22:54 | 57.83121 | -113.83766 | 38246 ft | 398 kts | 355° |
| 2026-05-04 22:54 | 57.88647 | -113.84213 | 38249 ft | 398 kts | 355° |
| 2026-05-04 22:55 | 57.94200 | -113.84663 | 38246 ft | 398 kts | 355° |
| 2026-05-04 22:55 | 57.99740 | -113.85114 | 38251 ft | 398 kts | 355° |
| 2026-05-04 22:56 | 58.05270 | -113.85566 | 38253 ft | 399 kts | 355° |
| 2026-05-04 22:56 | 58.10793 | -113.86018 | 38253 ft | 399 kts | 355° |
| 2026-05-04 22:57 | 58.16351 | -113.86474 | 38254 ft | 399 kts | 355° |
| 2026-05-04 22:57 | 58.21893 | -113.86931 | 38251 ft | 399 kts | 355° |
| 2026-05-04 22:58 | 58.27448 | -113.87390 | 38255 ft | 399 kts | 355° |
| 2026-05-04 22:58 | 58.32999 | -113.87851 | 38257 ft | 400 kts | 355° |
| 2026-05-04 22:59 | 58.38544 | -113.88312 | 38253 ft | 400 kts | 355° |
| 2026-05-04 22:59 | 58.44117 | -113.88777 | 38251 ft | 400 kts | 355° |
| 2026-05-04 23:00 | 58.48747 | -113.89165 | 38254 ft | 400 kts | 355° |
| 2026-05-04 23:00 | 58.55249 | -113.89711 | 38253 ft | 401 kts | 355° |
| 2026-05-04 23:01 | 58.59903 | -113.90103 | 38248 ft | 401 kts | 355° |
| 2026-05-04 23:01 | 58.65468 | -113.90573 | 38253 ft | 402 kts | 355° |
| 2026-05-04 23:02 | 58.71061 | -113.91047 | 38258 ft | 402 kts | 355° |
| 2026-05-04 23:02 | 58.76657 | -113.91523 | 38253 ft | 403 kts | 355° |
| 2026-05-04 23:03 | 58.82238 | -113.92000 | 38257 ft | 403 kts | 355° |
| 2026-05-04 23:03 | 58.87870 | -113.92482 | 38260 ft | 404 kts | 355° |
| 2026-05-04 23:04 | 58.93471 | -113.92963 | 38259 ft | 404 kts | 355° |
| 2026-05-04 23:04 | 58.99096 | -113.93448 | 38261 ft | 404 kts | 355° |
| 2026-05-04 23:05 | 59.04684 | -113.93931 | 38259 ft | 405 kts | 355° |
| 2026-05-04 23:05 | 59.10321 | -113.94420 | 38266 ft | 405 kts | 355° |
| 2026-05-04 23:06 | 59.15961 | -113.94910 | 38271 ft | 406 kts | 355° |
| 2026-05-04 23:06 | 59.21595 | -113.95402 | 38271 ft | 406 kts | 355° |
| 2026-05-04 23:07 | 59.27231 | -113.95896 | 38278 ft | 406 kts | 355° |
| 2026-05-04 23:07 | 59.32886 | -113.96393 | 38269 ft | 406 kts | 355° |
| 2026-05-04 23:08 | 59.38550 | -113.96892 | 38270 ft | 406 kts | 355° |
| 2026-05-04 23:08 | 59.44182 | -113.97390 | 38275 ft | 406 kts | 355° |
| 2026-05-04 23:09 | 59.49817 | -113.97890 | 38270 ft | 406 kts | 355° |
| 2026-05-04 23:09 | 59.55490 | -113.98395 | 38272 ft | 406 kts | 355° |
| 2026-05-04 23:10 | 59.61137 | -113.98900 | 38273 ft | 406 kts | 355° |
| 2026-05-04 23:10 | 59.66766 | -113.99405 | 38270 ft | 406 kts | 355° |
| 2026-05-04 23:11 | 59.72387 | -113.99917 | 38256 ft | 406 kts | 355° |
| 2026-05-04 23:11 | 59.78056 | -114.00419 | 38256 ft | 406 kts | 355° |
| 2026-05-04 23:12 | 59.83682 | -114.00926 | 38256 ft | 407 kts | 355° |
| 2026-05-04 23:12 | 59.89365 | -114.01443 | 38259 ft | 407 kts | 355° |
| 2026-05-04 23:13 | 59.95002 | -114.01958 | 38262 ft | 408 kts | 355° |
| 2026-05-04 23:13 | 60.00666 | -114.02477 | 38267 ft | 408 kts | 355° |
| 2026-05-04 23:14 | 60.06365 | -114.03001 | 38270 ft | 409 kts | 355° |
| 2026-05-04 23:14 | 60.12036 | -114.03524 | 38276 ft | 409 kts | 355° |
| 2026-05-04 23:15 | 60.17717 | -114.04050 | 38276 ft | 410 kts | 355° |
| 2026-05-04 23:15 | 60.23414 | -114.04578 | 38282 ft | 410 kts | 355° |
| 2026-05-04 23:16 | 60.29146 | -114.05112 | 38275 ft | 411 kts | 355° |
| 2026-05-04 23:16 | 60.31979 | -114.05377 | 38093 ft | 411 kts | 355° |
| 2026-05-04 23:16 | 60.34838 | -114.05644 | 37908 ft | 409 kts | 355° |
| 2026-05-04 23:17 | 60.37651 | -114.05907 | 37734 ft | 408 kts | 355° |
| 2026-05-04 23:17 | 60.40509 | -114.06175 | 37562 ft | 408 kts | 355° |
| 2026-05-04 23:17 | 60.43338 | -114.06441 | 37406 ft | 409 kts | 355° |
| 2026-05-04 23:17 | 60.46186 | -114.06709 | 37257 ft | 409 kts | 355° |
| 2026-05-04 23:18 | 60.49034 | -114.06978 | 37109 ft | 409 kts | 355° |
| 2026-05-04 23:18 | 60.51842 | -114.07243 | 36958 ft | 408 kts | 355° |
| 2026-05-04 23:18 | 60.54690 | -114.07512 | 36812 ft | 408 kts | 355° |
| 2026-05-04 23:18 | 60.57522 | -114.07780 | 36670 ft | 408 kts | 355° |
| 2026-05-04 23:19 | 60.60354 | -114.08048 | 36523 ft | 408 kts | 355° |
| 2026-05-04 23:19 | 60.63211 | -114.08320 | 36379 ft | 408 kts | 355° |
| 2026-05-04 23:19 | 60.68884 | -114.08860 | 36300 ft | 409 kts | 355° |
| 2026-05-04 23:20 | 60.74551 | -114.09500 | 36146 ft | 409 kts | 352° |
| 2026-05-04 23:20 | 60.77391 | -114.10113 | 36029 ft | 407 kts | 352° |
| 2026-05-04 23:20 | 60.80184 | -114.10665 | 35936 ft | 408 kts | 353° |
| 2026-05-04 23:21 | 60.85828 | -114.11754 | 35546 ft | 404 kts | 353° |
| 2026-05-04 23:21 | 60.88638 | -114.12305 | 35046 ft | 403 kts | 352° |
| 2026-05-04 23:21 | 60.91405 | -114.12854 | 34476 ft | 402 kts | 352° |
| 2026-05-04 23:22 | 60.94169 | -114.13407 | 33764 ft | 402 kts | 352° |
| 2026-05-04 23:22 | 60.96963 | -114.13968 | 32995 ft | 402 kts | 352° |
| 2026-05-04 23:22 | 60.99730 | -114.14525 | 32223 ft | 403 kts | 352° |
| 2026-05-04 23:22 | 61.02524 | -114.15088 | 31467 ft | 403 kts | 352° |
| 2026-05-04 23:23 | 61.05331 | -114.15654 | 30716 ft | 403 kts | 352° |
| 2026-05-04 23:23 | 61.08087 | -114.16210 | 30051 ft | 400 kts | 352° |
| 2026-05-04 23:23 | 61.10869 | -114.16773 | 29305 ft | 398 kts | 352° |
| 2026-05-04 23:23 | 61.13593 | -114.17325 | 28559 ft | 396 kts | 352° |
| 2026-05-04 23:24 | 61.16346 | -114.17886 | 27837 ft | 394 kts | 353° |
| 2026-05-04 23:24 | 61.19045 | -114.18436 | 27139 ft | 392 kts | 353° |
| 2026-05-04 23:24 | 61.21772 | -114.18993 | 26448 ft | 391 kts | 353° |
| 2026-05-04 23:24 | 61.24457 | -114.19543 | 25782 ft | 390 kts | 353° |
| 2026-05-04 23:25 | 61.27162 | -114.20097 | 25128 ft | 389 kts | 353° |
| 2026-05-04 23:25 | 61.29873 | -114.20653 | 24482 ft | 388 kts | 353° |
| 2026-05-04 23:25 | 61.32533 | -114.21201 | 23840 ft | 388 kts | 353° |
| 2026-05-04 23:25 | 61.35223 | -114.21754 | 23216 ft | 384 kts | 353° |
| 2026-05-04 23:26 | 61.37845 | -114.22292 | 22650 ft | 379 kts | 353° |
| 2026-05-04 23:26 | 61.40475 | -114.22834 | 22076 ft | 374 kts | 353° |
| 2026-05-04 23:26 | 61.43043 | -114.23364 | 21511 ft | 370 kts | 353° |
| 2026-05-04 23:26 | 61.45596 | -114.23891 | 20979 ft | 366 kts | 353° |
| 2026-05-04 23:27 | 61.48121 | -114.24415 | 20432 ft | 362 kts | 353° |
| 2026-05-04 23:27 | 61.50589 | -114.24927 | 19915 ft | 358 kts | 353° |
| 2026-05-04 23:27 | 61.53067 | -114.25442 | 19395 ft | 354 kts | 353° |
| 2026-05-04 23:27 | 61.55513 | -114.25952 | 18856 ft | 351 kts | 353° |
| 2026-05-04 23:28 | 61.57910 | -114.26452 | 18277 ft | 348 kts | 353° |
| 2026-05-04 23:28 | 61.60316 | -114.26955 | 17660 ft | 345 kts | 353° |
| 2026-05-04 23:28 | 61.62682 | -114.27451 | 17064 ft | 343 kts | 353° |
| 2026-05-04 23:28 | 61.65050 | -114.27948 | 16482 ft | 340 kts | 353° |
| 2026-05-04 23:29 | 61.67408 | -114.28444 | 15900 ft | 338 kts | 353° |
| 2026-05-04 23:29 | 61.69747 | -114.28936 | 15334 ft | 336 kts | 353° |
| 2026-05-04 23:29 | 61.72045 | -114.29420 | 14782 ft | 334 kts | 353° |
| 2026-05-04 23:29 | 61.74359 | -114.29908 | 14230 ft | 332 kts | 353° |
| 2026-05-04 23:30 | 61.76640 | -114.30390 | 13633 ft | 330 kts | 353° |
| 2026-05-04 23:30 | 61.78932 | -114.30875 | 13032 ft | 329 kts | 353° |
| 2026-05-04 23:30 | 61.81196 | -114.31355 | 12442 ft | 327 kts | 354° |
| 2026-05-04 23:30 | 61.83433 | -114.31830 | 11869 ft | 325 kts | 354° |
| 2026-05-04 23:31 | 61.85689 | -114.32310 | 11289 ft | 323 kts | 354° |
| 2026-05-04 23:31 | 61.87934 | -114.32787 | 10735 ft | 321 kts | 354° |
| 2026-05-04 23:31 | 61.90132 | -114.33256 | 10187 ft | 320 kts | 354° |
| 2026-05-04 23:31 | 61.92345 | -114.33727 | 9581 ft | 318 kts | 354° |
| 2026-05-04 23:32 | 61.94506 | -114.34188 | 8970 ft | 309 kts | 354° |
| 2026-05-04 23:32 | 61.96617 | -114.34639 | 8392 ft | 299 kts | 354° |
| 2026-05-04 23:32 | 61.98659 | -114.35076 | 7915 ft | 287 kts | 354° |
| 2026-05-04 23:32 | 62.00578 | -114.35487 | 7571 ft | 273 kts | 354° |
| 2026-05-04 23:33 | 62.02428 | -114.35885 | 7267 ft | 259 kts | 354° |
| 2026-05-04 23:33 | 62.04187 | -114.36263 | 6955 ft | 247 kts | 354° |
| 2026-05-04 23:33 | 62.05845 | -114.36620 | 6654 ft | 236 kts | 354° |
| 2026-05-04 23:33 | 62.07448 | -114.36965 | 6318 ft | 227 kts | 354° |
| 2026-05-04 23:34 | 62.08991 | -114.37298 | 5996 ft | 218 kts | 354° |
| 2026-05-04 23:34 | 62.10484 | -114.37620 | 5684 ft | 216 kts | 354° |
| 2026-05-04 23:34 | 62.11987 | -114.37944 | 5372 ft | 216 kts | 354° |
| 2026-05-04 23:34 | 62.13466 | -114.38264 | 5058 ft | 215 kts | 354° |
| 2026-05-04 23:35 | 62.14962 | -114.38588 | 4729 ft | 215 kts | 354° |
| 2026-05-04 23:35 | 62.16452 | -114.38911 | 4393 ft | 214 kts | 354° |
| 2026-05-04 23:35 | 62.17925 | -114.39230 | 4087 ft | 214 kts | 354° |
| 2026-05-04 23:35 | 62.19409 | -114.39552 | 3765 ft | 212 kts | 354° |
| 2026-05-04 23:36 | 62.20855 | -114.39867 | 3446 ft | 210 kts | 354° |
| 2026-05-04 23:36 | 62.22306 | -114.40182 | 3133 ft | 208 kts | 354° |
| 2026-05-04 23:36 | 62.23718 | -114.40488 | 3022 ft | 196 kts | 354° |
| 2026-05-04 23:36 | 62.25017 | -114.40771 | 3016 ft | 181 kts | 354° |
| 2026-05-04 23:37 | 62.26234 | -114.41037 | 3024 ft | 176 kts | 354° |
| 2026-05-04 23:37 | 62.27448 | -114.41301 | 3045 ft | 174 kts | 354° |
| 2026-05-04 23:37 | 62.28661 | -114.41565 | 3016 ft | 174 kts | 354° |
| 2026-05-04 23:37 | 62.29862 | -114.41793 | 3011 ft | 175 kts | 356° |
| 2026-05-04 23:38 | 62.31084 | -114.41970 | 3011 ft | 175 kts | 356° |
| 2026-05-04 23:38 | 62.32291 | -114.42134 | 3010 ft | 175 kts | 356° |
| 2026-05-04 23:38 | 62.33456 | -114.42297 | 3000 ft | 162 kts | 356° |
| 2026-05-04 23:38 | 62.34579 | -114.42427 | 2943 ft | 154 kts | 358° |
| 2026-05-04 23:39 | 62.35607 | -114.42533 | 2799 ft | 147 kts | 356° |
| 2026-05-04 23:39 | 62.36601 | -114.42719 | 2557 ft | 139 kts | 355° |
| 2026-05-04 23:39 | 62.37546 | -114.42909 | 2274 ft | 136 kts | 355° |
| 2026-05-04 23:39 | 62.38490 | -114.43060 | 2120 ft | 135 kts | 356° |
| 2026-05-04 23:40 | 62.39432 | -114.43177 | 2034 ft | 136 kts | 356° |
| 2026-05-04 23:40 | 62.40384 | -114.43346 | 1854 ft | 137 kts | 355° |
| 2026-05-04 23:40 | 62.41334 | -114.43497 | 1589 ft | 141 kts | 356° |
| 2026-05-04 23:40 | 62.42333 | -114.43628 | 1328 ft | 145 kts | 354° |
| 2026-05-04 23:41 | 62.43349 | -114.43786 | 1109 ft | 146 kts | 355° |
| 2026-05-04 23:41 | 62.44347 | -114.43930 | 925 ft | 144 kts | 354° |
| 2026-05-04 23:41 | 62.45348 | -114.44098 | 693 ft | 142 kts | 354° |
| 2026-05-04 23:41 | 62.46253 | -114.44230 | 677 ft | 119 kts | 354° |
| 2026-05-04 23:42 | 62.46917 | -114.44331 | 680 ft | 64 kts | 354° |
| 2026-05-04 23:42 | 62.47234 | -114.44375 | 684 ft | 30 kts | 356° |
| 2026-05-04 23:42 | 62.47320 | -114.44234 | 681 ft | 1 kts | 84° |
| 2026-05-04 23:42 | 62.47321 | -114.44217 | 678 ft | 6 kts | 85° |
| 2026-05-04 23:43 | 62.47295 | -114.44063 | 681 ft | 14 kts | 148° |
| 2026-05-04 23:43 | 62.47185 | -114.44031 | 682 ft | 18 kts | 179° |
| 2026-05-04 23:43 | 62.47054 | -114.44022 | 679 ft | 20 kts | 176° |
| 2026-05-04 23:43 | 62.46945 | -114.43845 | 681 ft | 19 kts | 115° |
| 2026-05-04 23:44 | 62.46896 | -114.43628 | 678 ft | 17 kts | 112° |
| 2026-05-04 23:44 | 62.46843 | -114.43379 | 677 ft | 19 kts | 115° |
| 2026-05-04 23:44 | 62.46789 | -114.43128 | 682 ft | 18 kts | 117° |
| 2026-05-04 23:44 | 62.46776 | -114.42923 | 681 ft | 11 kts | 45° |
| 2026-05-04 23:45 | 62.46810 | -114.42816 | 683 ft | 0 kts | 56° |